createdAt,value
2019-05-22T00:00:19.791Z,92.25
2019-05-22T00:01:19.760Z,92.25
2019-05-22T00:02:19.750Z,91.94
2019-05-22T00:03:19.737Z,92.35
2019-05-22T00:04:19.725Z,91.78
2019-05-22T00:05:19.739Z,92.49
2019-05-22T00:06:19.734Z,92.19
2019-05-22T00:07:19.696Z,91.89
2019-05-22T00:08:19.723Z,91.99
2019-05-22T00:09:19.707Z,91.49
2019-05-22T00:10:19.658Z,91.38
2019-05-22T00:11:19.677Z,91.38
2019-05-22T00:12:19.640Z,90.98
2019-05-22T00:13:19.624Z,90.47
2019-05-22T00:14:19.616Z,90.47
2019-05-22T00:15:19.599Z,90.47
2019-05-22T00:16:19.601Z,90.98
2019-05-22T00:17:19.581Z,91.28
2019-05-22T00:18:19.566Z,91.38
2019-05-22T00:19:19.559Z,90.98
2019-05-22T00:20:19.549Z,91.28
2019-05-22T00:21:19.550Z,91.49
2019-05-22T00:22:19.531Z,91.69
2019-05-22T00:23:19.515Z,91.78
2019-05-22T00:24:19.505Z,91.28
2019-05-22T00:25:19.491Z,91.42
2019-05-22T00:26:19.484Z,91.89
2019-05-22T00:27:19.472Z,91.49
2019-05-22T00:28:19.460Z,91.53
2019-05-22T00:29:19.448Z,91.49
2019-05-22T00:30:19.429Z,91.93
2019-05-22T00:31:19.428Z,91.63
2019-05-22T00:32:19.407Z,91.73
2019-05-22T00:33:19.399Z,91.63
2019-05-22T00:34:19.388Z,91.83
2019-05-22T00:35:19.374Z,91.63
2019-05-22T00:36:19.369Z,91.42
2019-05-22T00:37:19.359Z,91.42
2019-05-22T00:38:19.339Z,91.02
2019-05-22T00:39:19.328Z,90.21
2019-05-22T00:40:19.325Z,90.21
2019-05-22T00:41:19.322Z,90.25
2019-05-22T00:42:19.293Z,90.36
2019-05-22T00:43:19.281Z,90.56
2019-05-22T00:44:19.277Z,90.16
2019-05-22T00:45:19.302Z,90.16
2019-05-22T00:46:19.255Z,89.85
2019-05-22T00:47:19.252Z,89.75
2019-05-22T00:48:19.231Z,89.24
2019-05-22T00:49:19.221Z,90.16
2019-05-22T00:50:19.203Z,89.14
2019-05-22T00:51:19.197Z,90.05
2019-05-22T00:52:19.190Z,89.34
2019-05-22T00:53:19.174Z,89.45
2019-05-22T00:54:19.163Z,89.34
2019-05-22T00:55:19.151Z,89.89
2019-05-22T00:56:19.144Z,89.59
2019-05-22T00:57:19.142Z,89.39
2019-05-22T00:58:19.127Z,89.08
2019-05-22T00:59:19.106Z,89.48
2019-05-22T01:00:19.090Z,89.48
2019-05-22T01:01:19.086Z,89.79
2019-05-22T01:02:19.078Z,89.59
2019-05-22T01:03:19.058Z,89.69
2019-05-22T01:04:19.049Z,89.69
2019-05-22T01:05:19.038Z,89.48
2019-05-22T01:06:19.027Z,89.79
2019-05-22T01:07:19.085Z,89.28
2019-05-22T01:08:19.008Z,89.69
2019-05-22T01:09:18.998Z,89.79
2019-05-22T01:10:18.986Z,89.39
2019-05-22T01:11:18.972Z,89.59
2019-05-22T01:12:18.970Z,89.69
2019-05-22T01:13:18.951Z,89.28
2019-05-22T01:14:18.933Z,89.63
2019-05-22T01:15:18.927Z,89.63
2019-05-22T01:16:18.911Z,90.34
2019-05-22T01:17:18.922Z,90.03
2019-05-22T01:18:18.897Z,89.53
2019-05-22T01:19:18.891Z,90.44
2019-05-22T01:20:18.878Z,89.83
2019-05-22T01:21:18.870Z,90.34
2019-05-22T01:22:18.853Z,89.98
2019-05-22T01:23:18.835Z,89.73
2019-05-22T01:24:18.831Z,90.34
2019-05-22T01:25:18.808Z,90.14
2019-05-22T01:26:18.798Z,90.38
2019-05-22T01:27:18.799Z,89.94
2019-05-22T01:28:18.781Z,90.14
2019-05-22T01:29:18.763Z,90.48
2019-05-22T01:30:18.757Z,90.44
2019-05-22T01:31:18.747Z,90.44
2019-05-22T01:32:18.776Z,90.34
2019-05-22T01:33:18.723Z,90.34
2019-05-22T01:34:18.714Z,90.44
2019-05-22T01:35:18.715Z,89.83
2019-05-22T01:36:18.700Z,90.44
2019-05-22T01:37:18.706Z,90.08
2019-05-22T01:38:18.694Z,90.18
2019-05-22T01:39:18.658Z,90.48
2019-05-22T01:40:18.640Z,90.69
2019-05-22T01:41:18.632Z,90.64
2019-05-22T01:42:18.627Z,91.19
2019-05-22T01:43:18.625Z,91.19
2019-05-22T01:44:18.610Z,91.30
2019-05-22T01:45:18.591Z,91.50
2019-05-22T01:46:18.590Z,91.80
2019-05-22T01:47:18.568Z,91.50
2019-05-22T01:48:18.576Z,91.70
2019-05-22T01:49:18.542Z,91.60
2019-05-22T01:50:18.535Z,91.39
2019-05-22T01:51:18.519Z,91.70
2019-05-22T01:52:18.513Z,92.00
2019-05-22T01:53:18.511Z,91.80
2019-05-22T01:54:18.485Z,91.70
2019-05-22T01:55:18.493Z,91.80
2019-05-22T01:56:18.474Z,91.70
2019-05-22T01:57:18.457Z,91.60
2019-05-22T01:58:18.452Z,90.79
2019-05-22T01:59:18.430Z,90.34
2019-05-22T02:00:18.419Z,90.18
2019-05-22T02:01:18.410Z,89.94
2019-05-22T02:02:18.405Z,89.98
2019-05-22T02:03:18.414Z,90.18
2019-05-22T02:04:18.383Z,90.38
2019-05-22T02:05:18.364Z,90.58
2019-05-22T02:06:18.358Z,90.28
2019-05-22T02:07:18.344Z,90.48
2019-05-22T02:08:18.339Z,90.08
2019-05-22T02:09:18.333Z,89.87
2019-05-22T02:10:18.309Z,90.38
2019-05-22T02:11:18.308Z,89.98
2019-05-22T02:12:18.331Z,90.28
2019-05-22T02:13:18.295Z,90.08
2019-05-22T02:14:18.441Z,90.08
2019-05-22T02:15:18.254Z,90.18
2019-05-22T02:16:18.283Z,89.67
2019-05-22T02:17:18.239Z,89.57
2019-05-22T02:18:18.225Z,89.77
2019-05-22T02:19:18.232Z,89.47
2019-05-22T02:20:18.205Z,89.37
2019-05-22T02:21:18.191Z,89.47
2019-05-22T02:22:18.175Z,89.47
2019-05-22T02:23:18.172Z,89.57
2019-05-22T02:24:18.161Z,89.51
2019-05-22T02:25:18.146Z,90.42
2019-05-22T02:26:18.130Z,90.12
2019-05-22T02:27:18.120Z,89.92
2019-05-22T02:28:18.112Z,90.38
2019-05-22T02:29:18.111Z,90.38
2019-05-22T02:30:18.096Z,90.28
2019-05-22T02:31:18.090Z,89.47
2019-05-22T02:32:18.068Z,89.31
2019-05-22T02:33:18.063Z,90.18
2019-05-22T02:34:18.058Z,89.77
2019-05-22T02:35:18.040Z,90.32
2019-05-22T02:36:18.024Z,90.18
2019-05-22T02:37:18.009Z,90.28
2019-05-22T02:38:18.015Z,90.48
2019-05-22T02:39:18.029Z,89.67
2019-05-22T02:40:17.980Z,89.47
2019-05-22T02:41:17.964Z,89.47
2019-05-22T02:42:17.967Z,89.57
2019-05-22T02:43:17.954Z,89.47
2019-05-22T02:44:17.951Z,89.57
2019-05-22T02:45:17.919Z,89.61
2019-05-22T02:46:17.909Z,90.42
2019-05-22T02:47:21.195Z,90.02
2019-05-22T02:48:17.897Z,90.42
2019-05-22T02:49:17.888Z,90.12
2019-05-22T02:50:17.866Z,89.92
2019-05-22T02:51:17.859Z,89.81
2019-05-22T02:52:17.847Z,89.81
2019-05-22T02:53:17.839Z,89.92
2019-05-22T02:54:17.839Z,89.47
2019-05-22T02:55:17.819Z,90.18
2019-05-22T02:56:17.802Z,90.32
2019-05-22T02:57:17.795Z,90.32
2019-05-22T02:58:17.775Z,90.32
2019-05-22T02:59:17.770Z,90.53
2019-05-22T03:00:17.763Z,90.32
2019-05-22T03:01:17.745Z,90.53
2019-05-22T03:02:17.730Z,90.53
2019-05-22T03:03:17.722Z,90.53
2019-05-22T03:04:17.721Z,90.93
2019-05-22T03:05:17.725Z,91.44
2019-05-22T03:06:17.704Z,92.19
2019-05-22T03:07:17.674Z,92.09
2019-05-22T03:08:17.672Z,91.89
2019-05-22T03:09:17.658Z,91.99
2019-05-22T03:10:17.655Z,92.09
2019-05-22T03:11:17.629Z,92.03
2019-05-22T03:12:17.619Z,92.84
2019-05-22T03:13:17.614Z,92.44
2019-05-22T03:14:17.605Z,92.74
2019-05-22T03:15:17.606Z,92.33
2019-05-22T03:16:17.576Z,92.33
2019-05-22T03:17:17.585Z,92.03
2019-05-22T03:18:17.556Z,92.64
2019-05-22T03:19:17.542Z,92.33
2019-05-22T03:20:17.559Z,92.13
2019-05-22T03:21:17.519Z,92.94
2019-05-22T03:22:17.504Z,92.54
2019-05-22T03:23:17.495Z,92.24
2019-05-22T03:24:17.486Z,92.13
2019-05-22T03:25:17.512Z,92.03
2019-05-22T03:26:17.460Z,92.33
2019-05-22T03:27:17.445Z,92.24
2019-05-22T03:28:17.444Z,92.33
2019-05-22T03:29:17.435Z,92.24
2019-05-22T03:30:17.507Z,92.64
2019-05-22T03:31:17.408Z,92.33
2019-05-22T03:32:17.393Z,92.13
2019-05-22T03:33:17.375Z,92.13
2019-05-22T03:34:17.377Z,92.13
2019-05-22T03:35:17.374Z,92.44
2019-05-22T03:36:17.346Z,92.24
2019-05-22T03:37:17.333Z,92.24
2019-05-22T03:38:17.331Z,91.93
2019-05-22T03:39:17.308Z,91.42
2019-05-22T03:40:17.298Z,92.03
2019-05-22T03:41:17.305Z,91.63
2019-05-22T03:42:17.278Z,91.93
2019-05-22T03:43:17.259Z,92.24
2019-05-22T03:44:17.246Z,91.73
2019-05-22T03:45:17.241Z,92.24
2019-05-22T03:46:17.235Z,92.13
2019-05-22T03:47:17.223Z,91.93
2019-05-22T03:48:17.209Z,91.73
2019-05-22T03:49:29.079Z,91.93
2019-05-22T03:50:18.201Z,91.83
2019-05-22T03:51:17.180Z,91.73
2019-05-22T03:52:17.164Z,91.93
2019-05-22T03:53:17.164Z,91.73
2019-05-22T03:54:17.137Z,92.13
2019-05-22T03:55:17.137Z,92.13
2019-05-22T03:56:17.124Z,91.63
2019-05-22T03:57:17.103Z,92.13
2019-05-22T03:58:17.087Z,92.13
2019-05-22T03:59:17.082Z,91.93
2019-05-22T04:00:17.068Z,92.24
2019-05-22T04:01:17.065Z,91.83
2019-05-22T04:02:17.044Z,91.87
2019-05-22T04:03:17.026Z,91.56
2019-05-22T04:04:17.030Z,91.77
2019-05-22T04:05:17.017Z,92.24
2019-05-22T04:06:17.014Z,91.87
2019-05-22T04:07:16.991Z,91.73
2019-05-22T04:08:16.978Z,92.28
2019-05-22T04:09:16.959Z,92.13
2019-05-22T04:10:16.958Z,91.73
2019-05-22T04:11:16.945Z,91.77
2019-05-22T04:12:16.935Z,91.87
2019-05-22T04:13:16.919Z,91.87
2019-05-22T04:14:16.903Z,92.28
2019-05-22T04:15:16.890Z,91.97
2019-05-22T04:16:16.894Z,91.97
2019-05-22T04:17:16.883Z,91.87
2019-05-22T04:18:16.855Z,91.77
2019-05-22T04:19:16.843Z,91.97
2019-05-22T04:20:16.834Z,92.12
2019-05-22T04:21:16.836Z,91.97
2019-05-22T04:22:16.813Z,92.28
2019-05-22T04:23:16.809Z,92.32
2019-05-22T04:24:16.791Z,92.99
2019-05-22T04:25:16.779Z,92.63
2019-05-22T04:26:16.771Z,93.03
2019-05-22T04:27:16.761Z,92.72
2019-05-22T04:28:16.749Z,93.13
2019-05-22T04:29:16.747Z,92.83
2019-05-22T04:30:16.730Z,92.99
2019-05-22T04:31:16.712Z,93.24
2019-05-22T04:32:16.721Z,92.93
2019-05-22T04:33:16.695Z,93.64
2019-05-22T04:34:16.677Z,93.03
2019-05-22T04:35:16.727Z,92.72
2019-05-22T04:36:16.650Z,92.93
2019-05-22T04:37:16.653Z,92.63
2019-05-22T04:38:16.647Z,92.72
2019-05-22T04:39:16.617Z,93.13
2019-05-22T04:40:16.620Z,93.54
2019-05-22T04:41:16.602Z,94.15
2019-05-22T04:42:16.597Z,93.33
2019-05-22T04:43:20.222Z,92.83
2019-05-22T04:44:16.562Z,92.93
2019-05-22T04:45:16.553Z,92.93
2019-05-22T04:46:16.552Z,93.03
2019-05-22T04:47:16.536Z,92.93
2019-05-22T04:48:16.523Z,93.07
2019-05-22T04:49:16.505Z,93.07
2019-05-22T04:50:16.507Z,92.36
2019-05-22T04:51:16.490Z,92.26
2019-05-22T04:52:16.499Z,92.36
2019-05-22T04:53:16.465Z,92.21
2019-05-22T04:54:16.452Z,92.30
2019-05-22T04:55:16.444Z,92.36
2019-05-22T04:56:16.436Z,92.67
2019-05-22T04:57:16.434Z,92.21
2019-05-22T04:58:16.412Z,92.16
2019-05-22T04:59:16.402Z,91.96
2019-05-22T05:00:16.390Z,91.69
2019-05-22T05:01:16.388Z,91.90
2019-05-22T05:02:16.387Z,91.75
2019-05-22T05:03:16.368Z,91.55
2019-05-22T05:04:16.347Z,92.26
2019-05-22T05:05:16.331Z,91.96
2019-05-22T05:06:16.323Z,92.26
2019-05-22T05:07:16.320Z,91.75
2019-05-22T05:08:16.305Z,91.96
2019-05-22T05:09:16.294Z,91.65
2019-05-22T05:10:16.275Z,91.65
2019-05-22T05:11:16.269Z,91.75
2019-05-22T05:12:16.266Z,91.86
2019-05-22T05:13:16.251Z,92.36
2019-05-22T05:14:16.267Z,92.10
2019-05-22T05:15:16.226Z,92.67
2019-05-22T05:16:16.211Z,92.87
2019-05-22T05:17:16.204Z,92.97
2019-05-22T05:18:16.195Z,91.86
2019-05-22T05:19:16.183Z,92.36
2019-05-22T05:20:22.575Z,91.69
2019-05-22T05:21:17.156Z,91.45
2019-05-22T05:22:16.154Z,91.09
2019-05-22T05:23:16.139Z,91.90
2019-05-22T05:24:16.132Z,92.00
2019-05-22T05:25:16.123Z,91.90
2019-05-22T05:26:16.105Z,91.90
2019-05-22T05:27:16.094Z,92.41
2019-05-22T05:28:16.092Z,92.67
2019-05-22T05:29:16.069Z,92.30
2019-05-22T05:30:16.055Z,92.30
2019-05-22T05:31:16.073Z,92.00
2019-05-22T05:32:16.047Z,91.80
2019-05-22T05:33:16.037Z,91.94
2019-05-22T05:34:16.029Z,92.10
2019-05-22T05:35:16.010Z,92.91
2019-05-22T05:36:15.999Z,93.02
2019-05-22T05:37:15.989Z,92.82
2019-05-22T05:38:15.985Z,91.49
2019-05-22T05:39:15.962Z,92.14
2019-05-22T05:40:15.952Z,93.47
2019-05-22T05:41:15.940Z,93.12
2019-05-22T05:42:15.929Z,93.32
2019-05-22T05:43:15.935Z,93.02
2019-05-22T05:44:15.910Z,92.96
2019-05-22T05:45:15.905Z,92.55
2019-05-22T05:46:15.881Z,93.06
2019-05-22T05:47:15.876Z,93.26
2019-05-22T05:48:15.880Z,93.57
2019-05-22T05:49:15.860Z,93.22
2019-05-22T05:50:15.843Z,93.16
2019-05-22T05:51:15.830Z,93.06
2019-05-22T05:52:15.819Z,93.37
2019-05-22T05:53:15.820Z,93.47
2019-05-22T05:54:15.805Z,93.16
2019-05-22T05:55:15.784Z,93.16
2019-05-22T05:56:15.775Z,92.76
2019-05-22T05:57:15.771Z,92.86
2019-05-22T05:58:15.747Z,93.47
2019-05-22T05:59:15.754Z,93.10
2019-05-22T06:00:15.740Z,93.21
2019-05-22T06:01:15.737Z,93.57
2019-05-22T06:02:15.709Z,94.02
2019-05-22T06:03:15.693Z,92.96
2019-05-22T06:04:15.711Z,93.87
2019-05-22T06:05:15.673Z,93.21
2019-05-22T06:06:15.660Z,93.31
2019-05-22T06:07:15.654Z,93.41
2019-05-22T06:08:15.637Z,92.90
2019-05-22T06:09:15.642Z,94.02
2019-05-22T06:10:15.621Z,93.01
2019-05-22T06:11:15.613Z,93.21
2019-05-22T06:12:15.616Z,93.62
2019-05-22T06:13:15.595Z,94.02
2019-05-22T06:14:15.581Z,93.10
2019-05-22T06:15:15.559Z,93.15
2019-05-22T06:16:15.557Z,93.25
2019-05-22T06:17:15.541Z,93.62
2019-05-22T06:18:15.530Z,93.62
2019-05-22T06:19:15.560Z,93.82
2019-05-22T06:20:15.508Z,94.02
2019-05-22T06:21:15.491Z,93.01
2019-05-22T06:22:15.482Z,93.10
2019-05-22T06:23:15.475Z,92.74
2019-05-22T06:24:15.473Z,93.15
2019-05-22T06:25:15.522Z,93.45
2019-05-22T06:26:15.434Z,92.64
2019-05-22T06:27:15.428Z,93.35
2019-05-22T06:28:15.411Z,92.64
2019-05-22T06:29:15.410Z,92.54
2019-05-22T06:30:15.396Z,92.54
2019-05-22T06:31:15.382Z,93.05
2019-05-22T06:32:15.365Z,93.35
2019-05-22T06:33:15.390Z,93.05
2019-05-22T06:34:15.372Z,93.25
2019-05-22T06:35:15.332Z,92.64
2019-05-22T06:36:15.319Z,92.23
2019-05-22T06:37:15.310Z,92.13
2019-05-22T06:38:15.303Z,91.93
2019-05-22T06:39:15.311Z,92.44
2019-05-22T06:40:15.274Z,92.40
2019-05-22T06:41:15.262Z,92.49
2019-05-22T06:42:15.257Z,92.33
2019-05-22T06:43:15.248Z,92.09
2019-05-22T06:44:15.255Z,92.44
2019-05-22T06:45:15.228Z,91.72
2019-05-22T06:46:15.212Z,92.13
2019-05-22T06:47:15.200Z,92.13
2019-05-22T06:48:15.190Z,92.64
2019-05-22T06:49:15.184Z,92.03
2019-05-22T06:50:15.164Z,91.01
2019-05-22T06:51:19.493Z,91.52
2019-05-22T06:52:15.146Z,91.52
2019-05-22T06:53:15.135Z,91.52
2019-05-22T06:54:15.122Z,91.22
2019-05-22T06:55:15.137Z,90.09
2019-05-22T06:56:15.100Z,90.91
2019-05-22T06:57:15.111Z,90.91
2019-05-22T06:58:15.079Z,91.62
2019-05-22T06:59:15.065Z,90.81
2019-05-22T07:00:15.562Z,90.60
2019-05-22T07:01:15.038Z,90.81
2019-05-22T07:02:15.393Z,89.59
2019-05-22T07:03:15.016Z,90.09
2019-05-22T07:04:15.018Z,89.99
2019-05-22T07:05:15.010Z,89.95
2019-05-22T07:06:14.987Z,90.70
2019-05-22T07:07:14.987Z,90.46
2019-05-22T07:08:14.973Z,90.66
2019-05-22T07:09:14.951Z,90.36
2019-05-22T07:10:14.948Z,90.77
2019-05-22T07:11:14.932Z,90.36
2019-05-22T07:12:14.916Z,90.81
2019-05-22T07:13:14.919Z,90.77
2019-05-22T07:14:14.894Z,89.54
2019-05-22T07:15:14.891Z,88.93
2019-05-22T07:16:14.868Z,90.05
2019-05-22T07:17:14.863Z,89.54
2019-05-22T07:18:14.854Z,89.24
2019-05-22T07:19:14.846Z,89.24
2019-05-22T07:20:14.848Z,88.83
2019-05-22T07:21:14.822Z,89.14
2019-05-22T07:22:14.801Z,89.14
2019-05-22T07:23:14.813Z,89.28
2019-05-22T07:24:14.788Z,88.93
2019-05-22T07:25:14.798Z,89.14
2019-05-22T07:26:14.760Z,89.34
2019-05-22T07:27:14.752Z,88.83
2019-05-22T07:28:14.739Z,88.83
2019-05-22T07:29:14.731Z,88.93
2019-05-22T07:30:14.713Z,88.83
2019-05-22T07:31:14.785Z,89.14
2019-05-22T07:32:14.707Z,89.54
2019-05-22T07:33:14.699Z,88.79
2019-05-22T07:34:14.669Z,89.50
2019-05-22T07:35:14.667Z,89.00
2019-05-22T07:36:17.041Z,88.63
2019-05-22T07:37:14.640Z,88.48
2019-05-22T07:38:14.633Z,88.89
2019-05-22T07:39:14.619Z,89.24
2019-05-22T07:40:14.616Z,88.89
2019-05-22T07:41:14.600Z,87.92
2019-05-22T07:42:14.580Z,87.61
2019-05-22T07:43:14.577Z,89.03
2019-05-22T07:44:14.565Z,88.32
2019-05-22T07:45:14.559Z,88.53
2019-05-22T07:46:14.562Z,88.26
2019-05-22T07:47:14.531Z,89.03
2019-05-22T07:48:14.525Z,88.32
2019-05-22T07:49:14.515Z,88.32
2019-05-22T07:50:14.504Z,88.63
2019-05-22T07:51:14.492Z,88.22
2019-05-22T07:52:14.476Z,89.14
2019-05-22T07:53:14.467Z,89.03
2019-05-22T07:54:14.456Z,89.03
2019-05-22T07:55:14.439Z,89.24
2019-05-22T07:56:14.456Z,88.93
2019-05-22T07:57:14.431Z,88.53
2019-05-22T07:58:14.424Z,89.14
2019-05-22T07:59:14.398Z,88.32
2019-05-22T08:00:14.383Z,87.77
2019-05-22T08:01:14.389Z,88.18
2019-05-22T08:02:14.367Z,88.02
2019-05-22T08:03:14.355Z,87.81
2019-05-22T08:04:14.343Z,87.92
2019-05-22T08:05:14.332Z,87.51
2019-05-22T08:06:14.331Z,87.61
2019-05-22T08:07:14.311Z,87.30
2019-05-22T08:08:14.331Z,88.42
2019-05-22T08:09:14.297Z,88.02
2019-05-22T08:10:14.280Z,87.81
2019-05-22T08:11:14.270Z,87.51
2019-05-22T08:12:14.258Z,87.20
2019-05-22T08:13:14.242Z,87.51
2019-05-22T08:14:14.236Z,87.71
2019-05-22T08:15:14.236Z,87.51
2019-05-22T08:16:14.215Z,87.51
2019-05-22T08:17:14.209Z,87.51
2019-05-22T08:18:14.190Z,88.22
2019-05-22T08:19:14.174Z,87.61
2019-05-22T08:20:14.166Z,86.86
2019-05-22T08:21:14.165Z,86.65
2019-05-22T08:22:14.153Z,86.69
2019-05-22T08:23:14.134Z,87.00
2019-05-22T08:24:14.123Z,87.10
2019-05-22T08:25:14.113Z,86.80
2019-05-22T08:26:14.111Z,86.90
2019-05-22T08:27:14.081Z,86.59
2019-05-22T08:28:14.073Z,86.59
2019-05-22T08:29:14.117Z,86.59
2019-05-22T08:30:14.049Z,86.80
2019-05-22T08:31:14.070Z,86.86
2019-05-22T08:32:14.037Z,87.06
2019-05-22T08:33:14.021Z,86.80
2019-05-22T08:34:14.012Z,86.45
2019-05-22T08:35:14.025Z,86.59
2019-05-22T08:36:14.006Z,85.94
2019-05-22T08:37:13.979Z,85.78
2019-05-22T08:38:14.128Z,86.39
2019-05-22T08:39:14.007Z,86.69
2019-05-22T08:40:13.942Z,86.59
2019-05-22T08:41:13.938Z,86.59
2019-05-22T08:42:13.919Z,85.98
2019-05-22T08:43:13.923Z,86.19
2019-05-22T08:44:16.751Z,86.45
2019-05-22T08:45:13.882Z,85.74
2019-05-22T08:46:13.868Z,85.74
2019-05-22T08:47:13.871Z,85.74
2019-05-22T08:48:13.843Z,85.94
2019-05-22T08:49:13.833Z,86.29
2019-05-22T08:50:13.824Z,86.35
2019-05-22T08:51:13.818Z,86.15
2019-05-22T08:52:22.868Z,86.15
2019-05-22T08:53:14.791Z,86.25
2019-05-22T08:54:13.776Z,86.45
2019-05-22T08:55:13.767Z,86.04
2019-05-22T08:56:13.768Z,86.55
2019-05-22T08:57:13.761Z,86.69
2019-05-22T08:58:13.740Z,86.90
2019-05-22T08:59:19.607Z,87.87
2019-05-22T09:00:14.716Z,86.76
2019-05-22T09:01:13.700Z,87.71
2019-05-22T09:02:13.699Z,88.02
2019-05-22T09:03:13.676Z,88.32
2019-05-22T09:04:13.663Z,87.81
2019-05-22T09:05:13.653Z,88.12
2019-05-22T09:06:13.655Z,87.57
2019-05-22T09:07:13.639Z,87.16
2019-05-22T09:08:13.625Z,87.98
2019-05-22T09:09:13.609Z,87.20
2019-05-22T09:10:13.601Z,87.67
2019-05-22T09:11:13.595Z,87.81
2019-05-22T09:12:13.584Z,87.41
2019-05-22T09:13:13.559Z,88.39
2019-05-22T09:14:13.548Z,88.08
2019-05-22T09:15:13.542Z,87.71
2019-05-22T09:16:13.529Z,87.30
2019-05-22T09:17:13.534Z,87.47
2019-05-22T09:18:13.523Z,88.12
2019-05-22T09:19:13.719Z,87.47
2019-05-22T09:20:13.479Z,88.18
2019-05-22T09:21:13.467Z,87.37
2019-05-22T09:22:13.471Z,87.77
2019-05-22T09:23:13.451Z,87.57
2019-05-22T09:24:13.435Z,86.86
2019-05-22T09:25:13.921Z,87.47
2019-05-22T09:26:13.419Z,86.96
2019-05-22T09:27:13.411Z,87.26
2019-05-22T09:28:13.395Z,87.77
2019-05-22T09:29:13.375Z,87.87
2019-05-22T09:30:13.374Z,87.16
2019-05-22T09:31:13.363Z,86.15
2019-05-22T09:32:13.393Z,87.06
2019-05-22T09:33:13.384Z,86.55
2019-05-22T09:34:13.318Z,86.65
2019-05-22T09:35:13.313Z,86.04
2019-05-22T09:36:13.304Z,86.45
2019-05-22T09:37:13.301Z,86.55
2019-05-22T09:38:13.271Z,86.41
2019-05-22T09:39:13.266Z,86.21
2019-05-22T09:40:13.250Z,86.31
2019-05-22T09:41:13.249Z,85.60
2019-05-22T09:42:13.263Z,86.00
2019-05-22T09:43:13.215Z,85.94
2019-05-22T09:44:15.358Z,86.41
2019-05-22T09:45:13.193Z,86.25
2019-05-22T09:46:13.204Z,86.71
2019-05-22T09:47:13.175Z,86.10
2019-05-22T09:48:13.163Z,85.39
2019-05-22T09:49:13.174Z,85.60
2019-05-22T09:50:13.138Z,85.80
2019-05-22T09:51:13.135Z,85.90
2019-05-22T09:52:13.128Z,85.60
2019-05-22T09:53:13.099Z,85.29
2019-05-22T09:54:13.091Z,85.46
2019-05-22T09:55:13.080Z,85.39
2019-05-22T09:56:13.070Z,85.09
2019-05-22T09:57:13.066Z,85.66
2019-05-22T09:58:13.043Z,85.46
2019-05-22T09:59:13.034Z,85.46
2019-05-22T10:00:13.018Z,85.76
2019-05-22T10:01:13.009Z,85.86
2019-05-22T10:02:13.006Z,84.84
2019-05-22T10:03:12.995Z,85.35
2019-05-22T10:04:12.978Z,85.60
2019-05-22T10:05:12.966Z,85.29
2019-05-22T10:06:12.948Z,85.60
2019-05-22T10:07:12.962Z,85.60
2019-05-22T10:08:12.938Z,85.70
2019-05-22T10:09:12.916Z,86.00
2019-05-22T10:10:12.915Z,85.80
2019-05-22T10:11:12.893Z,85.90
2019-05-22T10:12:12.889Z,86.21
2019-05-22T10:13:12.877Z,86.00
2019-05-22T10:14:12.863Z,86.00
2019-05-22T10:15:13.139Z,85.90
2019-05-22T10:16:12.835Z,85.39
2019-05-22T10:17:12.833Z,85.66
2019-05-22T10:18:12.823Z,85.80
2019-05-22T10:19:12.829Z,85.60
2019-05-22T10:20:12.805Z,85.80
2019-05-22T10:21:12.782Z,85.25
2019-05-22T10:22:12.781Z,85.49
2019-05-22T10:23:16.003Z,84.88
2019-05-22T10:24:12.741Z,85.09
2019-05-22T10:25:16.247Z,85.39
2019-05-22T10:26:12.723Z,85.80
2019-05-22T10:27:12.722Z,85.35
2019-05-22T10:28:12.709Z,85.15
2019-05-22T10:29:12.691Z,85.35
2019-05-22T10:30:12.699Z,84.64
2019-05-22T10:31:15.390Z,85.05
2019-05-22T10:32:12.663Z,84.13
2019-05-22T10:33:12.641Z,84.64
2019-05-22T10:34:12.628Z,84.95
2019-05-22T10:35:12.616Z,84.64
2019-05-22T10:36:12.620Z,84.95
2019-05-22T10:37:12.603Z,85.46
2019-05-22T10:38:12.601Z,85.25
2019-05-22T10:39:12.578Z,85.29
2019-05-22T10:40:12.567Z,85.80
2019-05-22T10:41:12.561Z,85.86
2019-05-22T10:42:12.538Z,85.60
2019-05-22T10:43:12.563Z,86.00
2019-05-22T10:44:12.523Z,85.60
2019-05-22T10:45:12.514Z,85.15
2019-05-22T10:46:12.795Z,85.60
2019-05-22T10:47:12.481Z,85.29
2019-05-22T10:48:12.493Z,85.19
2019-05-22T10:49:12.468Z,85.09
2019-05-22T10:50:12.455Z,85.39
2019-05-22T10:51:12.450Z,85.19
2019-05-22T10:52:12.423Z,85.39
2019-05-22T10:53:12.434Z,85.70
2019-05-22T10:54:12.442Z,85.19
2019-05-22T10:55:12.419Z,85.60
2019-05-22T10:56:12.388Z,85.39
2019-05-22T10:57:12.368Z,84.99
2019-05-22T10:58:12.402Z,85.09
2019-05-22T10:59:12.349Z,84.68
2019-05-22T11:00:12.337Z,85.60
2019-05-22T11:01:12.325Z,85.25
2019-05-22T11:02:12.310Z,85.46
2019-05-22T11:03:12.322Z,84.64
2019-05-22T11:04:12.293Z,83.99
2019-05-22T11:05:12.299Z,83.79
2019-05-22T11:06:12.268Z,83.08
2019-05-22T11:07:12.254Z,83.48
2019-05-22T11:08:12.252Z,84.44
2019-05-22T11:09:12.228Z,84.64
2019-05-22T11:10:12.226Z,84.64
2019-05-22T11:11:12.215Z,84.78
2019-05-22T11:12:12.194Z,85.19
2019-05-22T11:13:12.198Z,84.74
2019-05-22T11:14:12.172Z,84.95
2019-05-22T11:15:12.170Z,84.78
2019-05-22T11:16:12.161Z,85.70
2019-05-22T11:17:12.143Z,85.25
2019-05-22T11:18:12.140Z,85.70
2019-05-22T11:19:12.111Z,85.90
2019-05-22T11:20:12.099Z,85.46
2019-05-22T11:21:12.096Z,85.86
2019-05-22T11:22:12.077Z,85.25
2019-05-22T11:23:12.075Z,84.54
2019-05-22T11:24:12.060Z,85.15
2019-05-22T11:25:12.048Z,85.25
2019-05-22T11:26:12.039Z,85.25
2019-05-22T11:27:12.041Z,85.35
2019-05-22T11:28:12.037Z,85.39
2019-05-22T11:29:11.997Z,85.25
2019-05-22T11:30:11.992Z,85.35
2019-05-22T11:31:11.989Z,84.78
2019-05-22T11:32:11.968Z,85.15
2019-05-22T11:33:11.969Z,85.05
2019-05-22T11:34:11.938Z,84.58
2019-05-22T11:35:11.932Z,84.78
2019-05-22T11:36:11.931Z,85.19
2019-05-22T11:37:11.922Z,84.23
2019-05-22T11:38:11.908Z,84.03
2019-05-22T11:39:11.890Z,84.28
2019-05-22T11:40:11.875Z,83.32
2019-05-22T11:41:11.863Z,83.42
2019-05-22T11:42:11.848Z,83.12
2019-05-22T11:43:11.844Z,82.95
2019-05-22T11:44:11.841Z,83.56
2019-05-22T11:45:11.813Z,83.46
2019-05-22T11:46:11.809Z,83.53
2019-05-22T11:47:11.791Z,83.12
2019-05-22T11:48:11.789Z,83.42
2019-05-22T11:49:11.783Z,83.93
2019-05-22T11:50:11.766Z,83.73
2019-05-22T11:51:11.755Z,84.64
2019-05-22T11:52:11.746Z,84.84
2019-05-22T11:53:11.722Z,84.95
2019-05-22T11:54:11.728Z,84.95
2019-05-22T11:55:11.704Z,85.05
2019-05-22T11:56:11.699Z,84.95
2019-05-22T11:57:11.689Z,84.84
2019-05-22T11:58:11.675Z,85.29
2019-05-22T11:59:11.667Z,85.15
2019-05-22T12:00:11.649Z,85.29
2019-05-22T12:01:11.640Z,85.39
2019-05-22T12:02:11.667Z,85.80
2019-05-22T12:03:11.619Z,85.53
2019-05-22T12:04:11.625Z,86.00
2019-05-22T12:05:11.590Z,85.84
2019-05-22T12:06:11.581Z,86.25
2019-05-22T12:07:11.573Z,86.04
2019-05-22T12:08:11.556Z,86.25
2019-05-22T12:09:11.553Z,86.45
2019-05-22T12:10:11.526Z,85.70
2019-05-22T12:11:11.533Z,86.35
2019-05-22T12:12:11.510Z,85.94
2019-05-22T12:13:11.809Z,85.70
2019-05-22T12:14:11.525Z,85.60
2019-05-22T12:15:11.479Z,85.70
2019-05-22T12:16:11.461Z,85.19
2019-05-22T12:17:11.453Z,85.53
2019-05-22T12:18:11.436Z,85.39
2019-05-22T12:19:11.436Z,85.90
2019-05-22T12:20:11.426Z,85.19
2019-05-22T12:21:11.408Z,85.60
2019-05-22T12:22:11.391Z,85.19
2019-05-22T12:23:11.389Z,85.53
2019-05-22T12:24:26.303Z,85.49
2019-05-22T12:25:12.375Z,85.29
2019-05-22T12:26:11.345Z,85.39
2019-05-22T12:27:11.354Z,85.29
2019-05-22T12:28:11.329Z,84.88
2019-05-22T12:29:11.320Z,85.19
2019-05-22T12:30:11.308Z,85.80
2019-05-22T12:31:11.300Z,85.39
2019-05-22T12:32:11.284Z,85.09
2019-05-22T12:33:13.654Z,84.99
2019-05-22T12:34:11.263Z,85.39
2019-05-22T12:35:11.251Z,85.39
2019-05-22T12:36:11.243Z,85.70
2019-05-22T12:37:11.224Z,85.90
2019-05-22T12:38:11.215Z,86.10
2019-05-22T12:39:11.202Z,85.80
2019-05-22T12:40:11.199Z,85.80
2019-05-22T12:41:11.173Z,85.80
2019-05-22T12:42:11.186Z,85.70
2019-05-22T12:43:11.151Z,85.29
2019-05-22T12:44:11.139Z,85.70
2019-05-22T12:45:11.140Z,85.80
2019-05-22T12:46:11.121Z,85.84
2019-05-22T12:47:11.109Z,85.90
2019-05-22T12:48:11.114Z,85.90
2019-05-22T12:49:11.092Z,85.49
2019-05-22T12:50:11.090Z,85.19
2019-05-22T12:51:11.069Z,85.09
2019-05-22T12:52:11.050Z,84.99